createdAt,value
2018-12-29T00:01:55.141Z,11.60
2018-12-29T00:04:21.103Z,10.70
2018-12-29T00:06:47.071Z,10.20
2018-12-29T00:09:13.024Z,8.93
2018-12-29T00:11:39.008Z,10.23
2018-12-29T00:14:04.978Z,10.80
2018-12-29T00:16:30.926Z,10.40
2018-12-29T00:18:56.934Z,10.37
2018-12-29T00:21:22.875Z,10.00
2018-12-29T00:23:48.876Z,10.63
2018-12-29T00:26:14.818Z,10.10
2018-12-29T00:28:40.815Z,10.63
2018-12-29T00:31:07.506Z,10.70
2018-12-29T00:33:33.499Z,9.53
2018-12-29T00:36:00.194Z,10.50
2018-12-29T00:38:26.175Z,10.00
2018-12-29T00:40:52.135Z,10.83
2018-12-29T00:43:18.100Z,9.77
2018-12-29T00:45:45.563Z,9.23
2018-12-29T00:48:10.830Z,9.07
2018-12-29T00:50:36.808Z,10.27
2018-12-29T00:53:02.771Z,9.63
2018-12-29T00:55:28.758Z,10.80
2018-12-29T00:57:54.773Z,9.73
2018-12-29T01:00:21.498Z,10.17
2018-12-29T01:02:48.181Z,10.23
2018-12-29T01:05:14.131Z,10.83
2018-12-29T01:07:40.116Z,10.37
2018-12-29T01:10:06.091Z,9.77
2018-12-29T01:12:32.062Z,9.30
2018-12-29T01:14:58.058Z,9.47
2018-12-29T01:17:24.783Z,9.17
2018-12-29T01:19:50.754Z,11.13
2018-12-29T01:22:16.727Z,10.57
2018-12-29T01:24:42.671Z,9.60
2018-12-29T01:27:09.392Z,9.37
2018-12-29T01:29:36.123Z,8.67
2018-12-29T01:32:02.062Z,10.23
2018-12-29T01:34:28.758Z,10.60
2018-12-29T01:36:54.720Z,10.73
2018-12-29T01:39:21.452Z,11.87
2018-12-29T01:41:54.483Z,10.73
2018-12-29T01:44:21.262Z,11.43
2018-12-29T01:46:47.284Z,10.87
2018-12-29T01:49:13.276Z,11.07
2018-12-29T01:51:39.286Z,10.77
2018-12-29T01:54:05.350Z,10.73
2018-12-29T01:56:31.332Z,10.37
2018-12-29T01:58:57.298Z,10.67
2018-12-29T02:01:23.276Z,10.53
2018-12-29T02:03:49.228Z,11.67
2018-12-29T02:06:16.003Z,11.83
2018-12-29T02:08:41.952Z,12.27
2018-12-29T02:11:08.675Z,11.27
2018-12-29T02:13:34.619Z,12.00
2018-12-29T02:16:00.593Z,9.80
2018-12-29T02:18:26.564Z,11.43
2018-12-29T02:20:52.570Z,11.47
2018-12-29T02:23:19.268Z,11.50
2018-12-29T02:25:45.233Z,11.10
2018-12-29T02:28:11.958Z,11.97
2018-12-29T02:30:37.914Z,11.47
2018-12-29T02:33:03.934Z,12.20
2018-12-29T02:35:29.904Z,12.20
2018-12-29T02:37:55.877Z,11.63
2018-12-29T02:40:22.562Z,11.50
2018-12-29T02:42:48.631Z,11.03
2018-12-29T02:45:15.333Z,11.30
2018-12-29T02:47:41.319Z,11.40
2018-12-29T02:50:07.309Z,11.67
2018-12-29T02:52:34.014Z,11.50
2018-12-29T02:55:00.033Z,11.13
2018-12-29T02:57:26.033Z,11.27
2018-12-29T02:59:52.006Z,11.93
2018-12-29T03:02:17.959Z,11.03
2018-12-29T03:04:44.668Z,11.53
2018-12-29T03:07:10.621Z,11.57
2018-12-29T03:09:37.330Z,11.53
2018-12-29T03:12:03.280Z,11.43
2018-12-29T03:14:29.232Z,12.27
2018-12-29T03:16:55.225Z,10.97
2018-12-29T03:19:21.912Z,11.27
2018-12-29T03:21:47.887Z,10.73
2018-12-29T03:24:14.579Z,11.07
2018-12-29T03:26:40.572Z,11.17
2018-12-29T03:29:06.523Z,11.07
2018-12-29T03:31:32.573Z,12.03
2018-12-29T03:33:58.526Z,11.50
2018-12-29T03:36:24.488Z,11.00
2018-12-29T03:38:50.455Z,11.43
2018-12-29T03:41:17.161Z,11.27
2018-12-29T03:43:43.138Z,10.60
2018-12-29T03:46:09.104Z,10.23
2018-12-29T03:48:35.093Z,11.50
2018-12-29T03:51:01.048Z,10.67
2018-12-29T03:53:27.024Z,10.70
2018-12-29T03:55:53.713Z,11.17
2018-12-29T03:58:19.705Z,10.50
2018-12-29T04:00:45.653Z,10.67
2018-12-29T04:03:11.604Z,10.37
2018-12-29T04:05:37.567Z,11.80
2018-12-29T04:08:03.517Z,10.47
2018-12-29T04:10:29.491Z,10.20
2018-12-29T04:12:56.190Z,9.27
2018-12-29T04:15:22.188Z,10.23
2018-12-29T04:17:48.150Z,10.40
2018-12-29T04:20:14.146Z,10.70
2018-12-29T04:22:40.101Z,10.17
2018-12-29T04:25:06.128Z,10.43
2018-12-29T04:27:32.819Z,10.30
2018-12-29T04:29:58.817Z,10.73
2018-12-29T04:32:25.052Z,10.17
2018-12-29T04:34:51.019Z,10.07
2018-12-29T04:37:17.015Z,11.17
2018-12-29T04:39:42.983Z,9.93
2018-12-29T04:42:08.980Z,9.50
2018-12-29T04:44:34.932Z,10.57
2018-12-29T04:47:00.921Z,10.77
2018-12-29T04:49:26.888Z,10.90
2018-12-29T04:51:53.591Z,10.93
2018-12-29T04:54:19.569Z,9.83
2018-12-29T04:56:45.512Z,10.33
2018-12-29T04:59:11.491Z,10.93
2018-12-29T05:01:38.198Z,9.77
2018-12-29T05:04:04.191Z,10.03
2018-12-29T05:06:30.144Z,10.63
2018-12-29T05:08:56.142Z,9.80
2018-12-29T05:11:22.107Z,9.40
2018-12-29T05:13:48.082Z,9.70
2018-12-29T05:16:14.108Z,9.77
2018-12-29T05:18:40.055Z,10.07
2018-12-29T05:21:06.034Z,9.70
2018-12-29T05:23:31.975Z,10.87
2018-12-29T05:25:57.967Z,9.67
2018-12-29T05:28:24.660Z,9.67
2018-12-29T05:30:50.631Z,10.63
2018-12-29T05:33:16.622Z,11.07
2018-12-29T05:35:42.612Z,10.53
2018-12-29T05:38:08.585Z,9.43
2018-12-29T05:40:35.314Z,8.87
2018-12-29T05:43:01.305Z,10.43
2018-12-29T05:45:27.279Z,9.87
2018-12-29T05:47:53.999Z,9.67
2018-12-29T05:50:20.715Z,10.20
2018-12-29T05:52:46.696Z,9.40
2018-12-29T05:55:12.682Z,10.20
2018-12-29T05:57:38.672Z,10.37
2018-12-29T06:00:04.630Z,11.73
2018-12-29T06:02:30.586Z,10.43
2018-12-29T06:04:56.564Z,9.80
2018-12-29T06:07:22.517Z,11.00
2018-12-29T06:09:49.236Z,10.27
2018-12-29T06:12:15.184Z,10.23
2018-12-29T06:14:41.917Z,10.03
2018-12-29T06:17:07.845Z,10.70
2018-12-29T06:19:33.819Z,10.47
2018-12-29T06:21:59.803Z,10.90
2018-12-29T06:24:26.485Z,9.80
2018-12-29T06:26:53.268Z,9.20
2018-12-29T06:29:19.963Z,8.73
2018-12-29T06:31:45.950Z,10.50
2018-12-29T06:34:11.883Z,9.20
2018-12-29T06:36:37.878Z,10.67
2018-12-29T06:39:04.558Z,8.80
2018-12-29T06:41:30.536Z,10.57
2018-12-29T06:43:57.259Z,10.50
2018-12-29T06:46:23.197Z,9.60
2018-12-29T06:48:49.175Z,9.77
2018-12-29T06:51:15.122Z,8.97
2018-12-29T06:53:41.123Z,9.83
2018-12-29T06:56:07.100Z,10.10
2018-12-29T06:58:33.087Z,10.30
2018-12-29T07:00:59.055Z,11.23
2018-12-29T07:03:25.125Z,10.53
2018-12-29T07:05:51.097Z,10.30
2018-12-29T07:08:17.082Z,10.40
2018-12-29T07:10:43.073Z,9.43
2018-12-29T07:13:09.034Z,10.40
2018-12-29T07:15:35.021Z,11.17
2018-12-29T07:18:01.001Z,9.20
2018-12-29T07:20:27.727Z,10.27
2018-12-29T07:22:54.425Z,10.23
2018-12-29T07:25:20.431Z,10.17
2018-12-29T07:27:46.396Z,10.47
2018-12-29T07:30:12.338Z,10.67
2018-12-29T07:32:39.065Z,10.10
2018-12-29T07:35:05.769Z,10.03
2018-12-29T07:37:31.758Z,11.47
2018-12-29T07:39:57.735Z,10.83
2018-12-29T07:42:23.726Z,11.10
2018-12-29T07:44:50.435Z,12.23
2018-12-29T07:47:17.156Z,11.10
2018-12-29T07:49:43.136Z,9.60
2018-12-29T07:52:09.116Z,12.70
2018-12-29T07:54:35.854Z,11.80
2018-12-29T07:57:01.842Z,12.40
2018-12-29T07:59:27.811Z,11.57
2018-12-29T08:01:53.862Z,11.17
2018-12-29T08:04:19.886Z,11.27
2018-12-29T08:06:45.841Z,11.57
2018-12-29T08:09:11.840Z,10.60
2018-12-29T08:11:37.799Z,11.30
2018-12-29T08:14:03.752Z,11.97
2018-12-29T08:16:29.753Z,10.63
2018-12-29T08:18:55.686Z,11.37
2018-12-29T08:21:22.422Z,10.93
2018-12-29T08:23:49.096Z,12.07
2018-12-29T08:26:15.081Z,11.03
2018-12-29T08:28:41.074Z,10.83
2018-12-29T08:31:07.089Z,11.93
2018-12-29T08:33:33.036Z,10.47
2018-12-29T08:35:58.973Z,10.23
2018-12-29T08:38:25.714Z,10.03
2018-12-29T08:40:52.414Z,11.03
2018-12-29T08:43:18.412Z,12.07
2018-12-29T08:45:44.404Z,10.67
2018-12-29T08:48:11.157Z,11.60
2018-12-29T08:50:37.119Z,10.87
2018-12-29T08:53:03.095Z,11.23
2018-12-29T08:55:30.054Z,10.83
2018-12-29T08:57:56.579Z,11.00
2018-12-29T09:00:22.615Z,12.60
2018-12-29T09:02:49.299Z,10.83
2018-12-29T09:05:15.322Z,11.83
2018-12-29T09:07:41.303Z,11.27
2018-12-29T09:10:07.288Z,11.27
2018-12-29T09:12:33.236Z,11.57
2018-12-29T09:14:59.962Z,12.87
2018-12-29T09:17:26.693Z,11.80
2018-12-29T09:19:52.685Z,12.97
2018-12-29T09:22:18.671Z,11.57
2018-12-29T09:24:44.655Z,12.63
2018-12-29T09:27:10.624Z,12.40
2018-12-29T09:29:36.581Z,11.37
2018-12-29T09:32:02.564Z,11.77
2018-12-29T09:34:28.499Z,12.37
2018-12-29T09:36:54.459Z,12.90
2018-12-29T09:39:20.410Z,11.33
2018-12-29T09:41:47.150Z,11.73
2018-12-29T09:44:13.873Z,13.00
2018-12-29T09:46:39.833Z,12.33
2018-12-29T09:49:05.801Z,12.93
2018-12-29T09:51:31.750Z,11.13
2018-12-29T09:53:58.491Z,12.07
2018-12-29T09:56:25.205Z,11.97
2018-12-29T09:58:51.180Z,12.70
2018-12-29T10:01:17.124Z,13.63
2018-12-29T10:03:43.090Z,12.63
2018-12-29T10:06:09.801Z,12.93
2018-12-29T10:08:35.779Z,13.47
2018-12-29T10:11:01.747Z,11.13
2018-12-29T10:13:27.789Z,13.50
2018-12-29T10:15:53.749Z,12.60
2018-12-29T10:18:19.696Z,12.13
2018-12-29T10:20:45.673Z,13.13
2018-12-29T10:23:11.619Z,11.53
2018-12-29T10:25:37.628Z,12.20
2018-12-29T10:28:04.329Z,14.47
2018-12-29T10:30:30.327Z,12.23
2018-12-29T10:32:56.271Z,11.30
2018-12-29T10:35:22.217Z,12.23
2018-12-29T10:37:48.252Z,11.13
2018-12-29T10:40:14.957Z,12.47
2018-12-29T10:42:41.679Z,12.17
2018-12-29T10:45:07.628Z,11.53
2018-12-29T10:47:34.647Z,11.57
2018-12-29T10:49:59.622Z,12.03
2018-12-29T10:52:25.613Z,13.00
2018-12-29T10:54:51.585Z,10.83
2018-12-29T10:57:17.536Z,12.70
2018-12-29T10:59:43.511Z,11.83
2018-12-29T11:02:09.448Z,10.97
2018-12-29T11:04:35.441Z,11.47
2018-12-29T11:07:02.145Z,12.30
2018-12-29T11:09:28.132Z,10.73
2018-12-29T11:11:54.107Z,11.13
2018-12-29T11:14:20.089Z,11.33
2018-12-29T11:16:46.051Z,11.13
2018-12-29T11:19:12.046Z,11.30
2018-12-29T11:21:38.008Z,12.03
2018-12-29T11:24:04.733Z,10.90
2018-12-29T11:26:30.690Z,10.57
2018-12-29T11:28:57.384Z,11.40
2018-12-29T11:31:23.360Z,11.03
2018-12-29T11:33:49.312Z,9.97
2018-12-29T11:36:15.293Z,10.70
2018-12-29T11:38:41.995Z,11.40
2018-12-29T11:41:07.981Z,11.37
2018-12-29T11:43:33.927Z,9.23
2018-12-29T11:45:59.898Z,10.87
2018-12-29T11:48:26.583Z,11.67
2018-12-29T11:50:52.543Z,12.33
2018-12-29T11:53:19.284Z,11.40
2018-12-29T11:55:45.309Z,12.40
2018-12-29T11:58:12.058Z,11.10
2018-12-29T12:00:38.058Z,11.33
2018-12-29T12:03:04.796Z,12.33
2018-12-29T12:05:30.782Z,11.60
2018-12-29T12:07:56.794Z,11.23
2018-12-29T12:10:22.795Z,12.63
2018-12-29T12:12:48.772Z,11.87
2018-12-29T12:15:14.745Z,11.20
2018-12-29T12:17:40.723Z,12.40
2018-12-29T12:20:06.744Z,11.23
2018-12-29T12:22:32.802Z,12.73
2018-12-29T12:24:58.814Z,11.47
2018-12-29T12:27:24.793Z,12.30
2018-12-29T12:29:51.689Z,12.27
2018-12-29T12:32:18.395Z,11.97
2018-12-29T12:34:45.192Z,11.60
2018-12-29T12:37:11.230Z,11.57
2018-12-29T12:39:37.269Z,11.50
2018-12-29T12:42:04.067Z,10.93
2018-12-29T12:44:30.773Z,11.40
2018-12-29T12:46:56.780Z,11.90
2018-12-29T12:49:22.756Z,11.70
2018-12-29T12:51:48.804Z,10.87
2018-12-29T12:54:14.787Z,11.67
2018-12-29T12:56:41.524Z,10.90
2018-12-29T12:59:07.540Z,12.33
2018-12-29T13:01:33.524Z,12.07
2018-12-29T13:03:59.496Z,11.13
2018-12-29T13:06:26.250Z,10.70
2018-12-29T13:08:52.975Z,11.83
2018-12-29T13:11:18.923Z,11.20
2018-12-29T13:13:44.931Z,10.57
2018-12-29T13:16:11.631Z,10.03
2018-12-29T13:18:37.655Z,11.27
2018-12-29T13:21:03.632Z,9.87
2018-12-29T13:23:29.642Z,10.23
2018-12-29T13:25:56.351Z,11.37
2018-12-29T13:28:22.385Z,11.20
2018-12-29T13:30:48.345Z,11.70
2018-12-29T13:33:14.332Z,11.27
2018-12-29T13:35:40.312Z,11.10
2018-12-29T13:38:06.314Z,11.20
2018-12-29T13:40:32.313Z,11.20
2018-12-29T13:42:58.344Z,10.33
2018-12-29T13:45:25.077Z,9.73
2018-12-29T13:47:51.799Z,11.17
2018-12-29T13:50:17.812Z,11.20
2018-12-29T13:52:43.779Z,11.03
2018-12-29T13:55:10.522Z,10.87
2018-12-29T13:57:36.508Z,10.57
2018-12-29T14:00:02.522Z,10.13
2018-12-29T14:02:28.493Z,10.47
2018-12-29T14:04:54.465Z,10.77
2018-12-29T14:07:20.464Z,9.40
2018-12-29T14:09:46.439Z,11.63
2018-12-29T14:12:13.154Z,9.53
2018-12-29T14:14:39.124Z,10.23
2018-12-29T14:17:05.142Z,9.20
2018-12-29T14:19:31.119Z,8.37
2018-12-29T14:21:57.116Z,9.00
2018-12-29T14:24:23.081Z,8.60
2018-12-29T14:26:49.087Z,8.70
2018-12-29T14:29:15.052Z,8.60
2018-12-29T14:31:41.766Z,7.30
2018-12-29T14:34:08.527Z,8.50
2018-12-29T14:36:34.515Z,7.33
2018-12-29T14:39:00.507Z,7.50
2018-12-29T14:41:26.491Z,7.10
2018-12-29T14:43:53.255Z,7.30
2018-12-29T14:46:19.248Z,6.50
2018-12-29T14:48:45.978Z,6.57
2018-12-29T14:51:11.957Z,6.77
2018-12-29T14:53:37.973Z,7.03
2018-12-29T14:56:03.953Z,6.20
2018-12-29T14:58:30.661Z,6.73
2018-12-29T15:00:56.678Z,5.20
2018-12-29T15:03:22.667Z,5.50
2018-12-29T15:05:48.696Z,5.83
2018-12-29T15:08:14.646Z,5.93
2018-12-29T15:10:40.641Z,5.80
2018-12-29T15:13:06.649Z,5.67
2018-12-29T15:15:32.664Z,5.37
2018-12-29T15:17:59.377Z,6.17
2018-12-29T15:20:25.428Z,6.23
2018-12-29T15:22:51.466Z,5.70
2018-12-29T15:25:17.506Z,6.80
2018-12-29T15:27:43.537Z,5.53
2018-12-29T15:30:09.514Z,6.37
2018-12-29T15:32:35.500Z,5.90
2018-12-29T15:35:02.269Z,6.30
2018-12-29T15:37:29.043Z,5.63
2018-12-29T15:39:55.030Z,5.70
2018-12-29T15:42:21.055Z,5.50
2018-12-29T15:44:47.032Z,5.30
2018-12-29T15:47:13.051Z,5.13
2018-12-29T15:49:39.032Z,5.63
2018-12-29T15:52:05.779Z,5.80
2018-12-29T15:54:31.809Z,4.70
2018-12-29T15:56:58.583Z,5.17
2018-12-29T15:59:24.593Z,5.53
2018-12-29T16:01:50.580Z,5.60
2018-12-29T16:04:16.586Z,4.77
2018-12-29T16:06:42.548Z,4.90
2018-12-29T16:09:08.555Z,5.20
2018-12-29T16:11:34.569Z,4.93
2018-12-29T16:14:00.576Z,5.00
2018-12-29T16:16:26.589Z,4.77
2018-12-29T16:18:58.799Z,4.93
2018-12-29T16:21:18.661Z,5.13
2018-12-29T16:23:44.706Z,5.00
2018-12-29T16:26:12.772Z,5.10
2018-12-29T16:28:37.436Z,4.97
2018-12-29T16:31:03.484Z,4.20
2018-12-29T16:33:29.465Z,4.87
2018-12-29T16:35:55.528Z,4.20
2018-12-29T16:38:22.270Z,4.77
2018-12-29T16:40:48.284Z,4.83
2018-12-29T16:43:14.281Z,4.27
2018-12-29T16:45:40.308Z,4.60
2018-12-29T16:48:06.315Z,4.70
2018-12-29T16:50:32.339Z,4.47
2018-12-29T16:52:58.337Z,3.10
2018-12-29T16:55:24.352Z,4.20
2018-12-29T16:57:51.069Z,3.83
2018-12-29T17:00:17.048Z,3.73
2018-12-29T17:02:43.043Z,3.80
2018-12-29T17:05:09.065Z,3.90
2018-12-29T17:07:35.470Z,3.10
2018-12-29T17:10:01.465Z,3.27
2018-12-29T17:12:27.536Z,2.87
2018-12-29T17:14:54.262Z,2.97
2018-12-29T17:17:21.020Z,3.17
2018-12-29T17:19:47.753Z,3.20
2018-12-29T17:22:14.528Z,2.50
2018-12-29T17:24:41.243Z,2.60
2018-12-29T17:27:07.249Z,2.70
2018-12-29T17:29:33.251Z,2.67
2018-12-29T17:31:59.211Z,2.73
2018-12-29T17:34:25.237Z,2.57
2018-12-29T17:36:51.995Z,2.70
2018-12-29T17:39:18.034Z,2.70
2018-12-29T17:41:44.768Z,2.37
2018-12-29T17:44:10.807Z,1.80
2018-12-29T17:46:36.816Z,2.10
2018-12-29T17:49:02.836Z,2.03
2018-12-29T17:51:28.871Z,2.07
2018-12-29T17:53:54.878Z,1.40
2018-12-29T17:56:20.936Z,1.43
2018-12-29T17:58:46.936Z,1.50
2018-12-29T18:01:12.977Z,1.40
2018-12-29T18:03:38.963Z,1.77
2018-12-29T18:06:04.998Z,1.50
2018-12-29T18:08:30.993Z,1.70
2018-12-29T18:10:57.761Z,1.20
2018-12-29T18:13:23.779Z,1.47
2018-12-29T18:15:50.537Z,1.20
2018-12-29T18:18:16.555Z,1.27
2018-12-29T18:20:42.591Z,1.50
2018-12-29T18:23:08.567Z,1.80
2018-12-29T18:25:35.299Z,1.60
2018-12-29T18:28:02.059Z,0.87
2018-12-29T18:30:28.067Z,0.77
2018-12-29T18:32:54.852Z,0.90
2018-12-29T18:35:20.851Z,1.33
2018-12-29T18:37:47.585Z,1.27
2018-12-29T18:40:13.636Z,1.53
2018-12-29T18:42:39.640Z,1.27
2018-12-29T18:45:05.662Z,1.03
2018-12-29T18:47:32.407Z,1.30
2018-12-29T18:49:58.420Z,1.37
2018-12-29T18:52:24.437Z,0.97
2018-12-29T18:54:51.194Z,0.83
2018-12-29T18:57:17.916Z,1.17
2018-12-29T18:59:43.926Z,1.17
2018-12-29T19:02:09.904Z,1.10
2018-12-29T19:04:35.948Z,1.47
2018-12-29T19:07:01.926Z,1.33
2018-12-29T19:09:27.910Z,1.20
2018-12-29T19:11:53.977Z,1.33
2018-12-29T19:14:20.025Z,1.07
2018-12-29T19:16:46.052Z,0.67
2018-12-29T19:19:12.010Z,0.70
2018-12-29T19:21:38.018Z,1.57
2018-12-29T19:24:04.021Z,0.70
2018-12-29T19:26:30.270Z,1.60
2018-12-29T19:28:56.515Z,1.27
2018-12-29T19:31:22.570Z,1.13
2018-12-29T19:33:49.319Z,1.63
2018-12-29T19:36:16.060Z,1.70
2018-12-29T19:38:42.092Z,1.47
2018-12-29T19:41:08.129Z,1.10
2018-12-29T19:43:34.180Z,1.90
2018-12-29T19:46:00.945Z,1.13
2018-12-29T19:48:27.798Z,0.97
2018-12-29T19:50:53.718Z,1.50
2018-12-29T19:53:19.759Z,1.70
2018-12-29T19:55:46.476Z,1.40
2018-12-29T19:58:13.246Z,1.10
2018-12-29T20:00:39.354Z,1.60
2018-12-29T20:03:05.440Z,1.43
2018-12-29T20:05:32.234Z,2.30
2018-12-29T20:07:58.235Z,1.83
2018-12-29T20:10:24.248Z,2.17
2018-12-29T20:12:50.226Z,1.30
2018-12-29T20:15:16.285Z,2.10
2018-12-29T20:17:42.292Z,2.17
2018-12-29T20:20:08.360Z,2.60
2018-12-29T20:22:34.340Z,1.83
2018-12-29T20:25:00.368Z,2.30
2018-12-29T20:27:26.358Z,2.00
2018-12-29T20:29:52.376Z,1.43
2018-12-29T20:32:19.075Z,2.40
2018-12-29T20:34:45.089Z,2.63
2018-12-29T20:37:11.091Z,2.40
2018-12-29T20:39:37.077Z,2.00
2018-12-29T20:42:03.813Z,1.77
2018-12-29T20:44:29.802Z,1.90
2018-12-29T20:46:57.072Z,1.80
2018-12-29T20:49:22.621Z,1.70
2018-12-29T20:51:48.632Z,1.93
2018-12-29T20:54:15.351Z,1.20
2018-12-29T20:56:42.115Z,1.57
2018-12-29T20:59:08.097Z,1.93
2018-12-29T21:01:34.091Z,1.30
2018-12-29T21:04:00.904Z,1.97
2018-12-29T21:06:26.882Z,1.63
2018-12-29T21:08:52.908Z,1.77
2018-12-29T21:11:18.881Z,1.47
2018-12-29T21:13:44.895Z,1.33
2018-12-29T21:16:11.613Z,1.90
2018-12-29T21:18:37.623Z,1.80
2018-12-29T21:21:03.653Z,1.70
2018-12-29T21:23:30.423Z,2.37
2018-12-29T21:25:57.152Z,1.60
2018-12-29T21:28:23.115Z,0.93
2018-12-29T21:30:49.130Z,2.13
2018-12-29T21:33:15.132Z,1.83
2018-12-29T21:35:41.160Z,2.20
2018-12-29T21:38:07.184Z,1.60
2018-12-29T21:40:33.951Z,2.17
2018-12-29T21:42:59.918Z,1.67
2018-12-29T21:45:32.858Z,1.93
2018-12-29T21:47:58.863Z,1.60
2018-12-29T21:50:25.957Z,1.70
2018-12-29T21:52:51.622Z,1.67
2018-12-29T21:55:17.591Z,2.60
2018-12-29T21:57:44.340Z,2.67
2018-12-29T22:00:10.333Z,2.10
2018-12-29T22:02:36.350Z,1.97
2018-12-29T22:05:02.330Z,2.67
2018-12-29T22:07:29.097Z,2.00
2018-12-29T22:09:55.088Z,1.83
2018-12-29T22:12:21.096Z,1.67
2018-12-29T22:14:47.080Z,1.37
2018-12-29T22:17:13.056Z,1.53
2018-12-29T22:19:39.087Z,2.13
2018-12-29T22:22:05.816Z,2.10
2018-12-29T22:24:31.818Z,1.90
2018-12-29T22:26:57.820Z,1.37
2018-12-29T22:29:23.855Z,1.37
2018-12-29T22:31:49.841Z,1.47
2018-12-29T22:34:15.864Z,1.80
2018-12-29T22:36:41.837Z,1.93
2018-12-29T22:39:07.902Z,1.53
2018-12-29T22:41:34.628Z,1.63
2018-12-29T22:44:01.359Z,2.10
2018-12-29T22:46:27.364Z,1.87
2018-12-29T22:48:53.402Z,2.40
2018-12-29T22:51:20.298Z,1.80
2018-12-29T22:53:46.327Z,2.07
2018-12-29T22:56:12.353Z,1.33
2018-12-29T22:58:38.344Z,1.27
2018-12-29T23:01:05.115Z,2.50
2018-12-29T23:03:31.132Z,2.33
2018-12-29T23:05:57.868Z,1.23
2018-12-29T23:08:23.851Z,2.20
2018-12-29T23:10:49.831Z,1.83
2018-12-29T23:13:16.615Z,1.30
2018-12-29T23:15:42.609Z,1.53
2018-12-29T23:18:08.663Z,2.07
2018-12-29T23:20:34.683Z,1.30
2018-12-29T23:23:00.712Z,2.33
2018-12-29T23:25:26.688Z,1.23
2018-12-29T23:27:52.715Z,1.63
2018-12-29T23:30:18.720Z,1.60
2018-12-29T23:32:44.735Z,1.43
2018-12-29T23:35:10.763Z,1.70
2018-12-29T23:37:37.473Z,1.90
2018-12-29T23:40:03.531Z,2.27
2018-12-29T23:42:29.518Z,1.83
2018-12-29T23:44:55.540Z,1.83
2018-12-29T23:47:21.545Z,1.27
2018-12-29T23:49:48.389Z,2.00
2018-12-29T23:52:14.711Z,1.73
2018-12-29T23:54:40.414Z,1.70
2018-12-29T23:57:06.430Z,1.83
2018-12-29T23:59:32.437Z,1.80
